OAL556 LGKR-LGSK
Flight info
| Callsign | OAL556 |
|---|---|
| Flight time | N/A |
| Altitude | 15000 |
| Route | PARAX G12 YNN V651 AGH W58 SKP |
| Aircraft | YS11/M-SDFHY/C |
Departure
| Time | 2026-05-01 15:21 |
|---|---|
| Airport | Corfu Ioannis Kapodistrias International Airport (LGKR) |
Arrival
| Time | N/A |
|---|---|
| Airport | Skiathos Island National Airport (LGSK) |
| Time | Latitude | Longitude | Altitude | Speed | Heading |
|---|---|---|---|---|---|
| 2026-05-01 14:43 | 39.60706 | 19.91350 | 18 ft | 0 kts | 79° |
| 2026-05-01 14:49 | 39.60705 | 19.91350 | 18 ft | 0 kts | 77° |
| 2026-05-01 15:00 | 39.60705 | 19.91348 | 18 ft | 0 kts | 72° |
| 2026-05-01 15:09 | 39.60705 | 19.91350 | 18 ft | 1 kts | 58° |
| 2026-05-01 15:09 | 39.60712 | 19.91352 | 21 ft | 0 kts | 343° |
| 2026-05-01 15:10 | 39.60717 | 19.91336 | 20 ft | 4 kts | 255° |
| 2026-05-01 15:10 | 39.60698 | 19.91270 | 18 ft | 0 kts | 269° |
| 2026-05-01 15:10 | 39.60697 | 19.91263 | 18 ft | 8 kts | 269° |
| 2026-05-01 15:11 | 39.60726 | 19.91214 | 18 ft | 4 kts | 343° |
| 2026-05-01 15:11 | 39.60780 | 19.91197 | 18 ft | 8 kts | 347° |
| 2026-05-01 15:11 | 39.60822 | 19.91185 | 19 ft | 3 kts | 348° |
| 2026-05-01 15:12 | 39.60901 | 19.91164 | 18 ft | 11 kts | 348° |
| 2026-05-01 15:12 | 39.61049 | 19.91123 | 20 ft | 11 kts | 347° |
| 2026-05-01 15:12 | 39.61123 | 19.91103 | 20 ft | 11 kts | 348° |
| 2026-05-01 15:13 | 39.61172 | 19.91089 | 19 ft | 0 kts | 344° |
| 2026-05-01 15:17 | 39.61225 | 19.90995 | 21 ft | 9 kts | 270° |
| 2026-05-01 15:18 | 39.61184 | 19.90958 | 21 ft | 0 kts | 169° |
| 2026-05-01 15:19 | 39.61161 | 19.90964 | 21 ft | 24 kts | 169° |
| 2026-05-01 15:19 | 39.60710 | 19.91082 | 19 ft | 99 kts | 168° |
| 2026-05-01 15:20 | 39.58969 | 19.91526 | 25 ft | 151 kts | 168° |
| 2026-05-01 15:20 | 39.57946 | 19.91852 | 333 ft | 152 kts | 167° |
| 2026-05-01 15:20 | 39.56928 | 19.92346 | 570 ft | 163 kts | 152° |
| 2026-05-01 15:21 | 39.56038 | 19.93227 | 1025 ft | 160 kts | 140° |
| 2026-05-01 15:21 | 39.55177 | 19.94254 | 1252 ft | 176 kts | 138° |
| 2026-05-01 15:21 | 39.54320 | 19.95391 | 1652 ft | 176 kts | 133° |
| 2026-05-01 15:21 | 39.53505 | 19.96626 | 1915 ft | 184 kts | 131° |
| 2026-05-01 15:22 | 39.51744 | 19.99014 | 2714 ft | 185 kts | 135° |
| 2026-05-01 15:22 | 39.50815 | 20.00172 | 3079 ft | 187 kts | 140° |
| 2026-05-01 15:22 | 39.49784 | 20.01232 | 3420 ft | 192 kts | 141° |
| 2026-05-01 15:23 | 39.48768 | 20.02290 | 3938 ft | 187 kts | 140° |
| 2026-05-01 15:23 | 39.47704 | 20.03388 | 4132 ft | 200 kts | 140° |
| 2026-05-01 15:23 | 39.46638 | 20.04452 | 4811 ft | 186 kts | 141° |
| 2026-05-01 15:23 | 39.45557 | 20.05470 | 5014 ft | 204 kts | 142° |
| 2026-05-01 15:24 | 39.44398 | 20.06586 | 5391 ft | 202 kts | 139° |
| 2026-05-01 15:24 | 39.43616 | 20.07952 | 5891 ft | 198 kts | 99° |
| 2026-05-01 15:24 | 39.43994 | 20.09800 | 5457 ft | 224 kts | 63° |
| 2026-05-01 15:24 | 39.44738 | 20.11554 | 5556 ft | 228 kts | 59° |
| 2026-05-01 15:25 | 39.45568 | 20.13354 | 5328 ft | 242 kts | 59° |
| 2026-05-01 15:25 | 39.46451 | 20.15245 | 5098 ft | 250 kts | 58° |
| 2026-05-01 15:25 | 39.47354 | 20.17199 | 4879 ft | 255 kts | 58° |
| 2026-05-01 15:25 | 39.48198 | 20.19155 | 5059 ft | 243 kts | 66° |
| 2026-05-01 15:26 | 39.48550 | 20.21269 | 5099 ft | 242 kts | 86° |
| 2026-05-01 15:26 | 39.48373 | 20.23422 | 5129 ft | 240 kts | 102° |
| 2026-05-01 15:26 | 39.47803 | 20.25447 | 5222 ft | 240 kts | 113° |
| 2026-05-01 15:26 | 39.46969 | 20.27334 | 5164 ft | 245 kts | 122° |
| 2026-05-01 15:27 | 39.45964 | 20.29130 | 5211 ft | 244 kts | 124° |
| 2026-05-01 15:27 | 39.44956 | 20.30899 | 5129 ft | 248 kts | 124° |
| 2026-05-01 15:27 | 39.43936 | 20.32713 | 5131 ft | 246 kts | 124° |
| 2026-05-01 15:28 | 39.42429 | 20.36452 | 5541 ft | 228 kts | 105° |
| 2026-05-01 15:28 | 39.42083 | 20.38418 | 5778 ft | 223 kts | 97° |
| 2026-05-01 15:28 | 39.41874 | 20.40442 | 5802 ft | 228 kts | 95° |
| 2026-05-01 15:29 | 39.41485 | 20.44248 | 6812 ft | 205 kts | 95° |
| 2026-05-01 15:29 | 39.41309 | 20.46115 | 6989 ft | 213 kts | 94° |
| 2026-05-01 15:29 | 39.41017 | 20.50043 | 7336 ft | 225 kts | 91° |
| 2026-05-01 15:30 | 39.40879 | 20.53977 | 8004 ft | 223 kts | 90° |
| 2026-05-01 15:31 | 39.40698 | 20.62114 | 8926 ft | 229 kts | 89° |
| 2026-05-01 15:31 | 39.40463 | 20.66308 | 9027 ft | 249 kts | 92° |
| 2026-05-01 15:32 | 39.40299 | 20.70919 | 9118 ft | 255 kts | 90° |
| 2026-05-01 15:32 | 39.40382 | 20.75614 | 8967 ft | 262 kts | 82° |
| 2026-05-01 15:33 | 39.40675 | 20.82375 | 8107 ft | 253 kts | 89° |
| 2026-05-01 15:34 | 39.40570 | 20.89115 | 8188 ft | 253 kts | 92° |